createdAt,value
2018-12-30T00:00:35.534Z,32.67
2018-12-30T00:03:04.408Z,35.63
2018-12-30T00:05:33.935Z,33.88
2018-12-30T00:08:02.367Z,34.05
2018-12-30T00:10:31.012Z,36.60
2018-12-30T00:12:59.560Z,34.58
2018-12-30T00:15:28.211Z,36.70
2018-12-30T00:17:56.540Z,35.85
2018-12-30T00:20:24.875Z,33.78
2018-12-30T00:22:53.240Z,34.90
2018-12-30T00:25:21.687Z,33.23
2018-12-30T00:27:50.412Z,35.60
2018-12-30T00:30:18.855Z,34.08
2018-12-30T00:32:47.388Z,36.42
2018-12-30T00:35:15.818Z,35.15
2018-12-30T00:37:44.354Z,36.28
2018-12-30T00:40:12.788Z,35.20
2018-12-30T00:42:43.177Z,33.98
2018-12-30T00:45:11.605Z,35.10
2018-12-30T00:47:40.049Z,34.88
2018-12-30T00:50:08.384Z,32.30
2018-12-30T00:52:37.493Z,35.10
2018-12-30T00:55:06.134Z,33.20
2018-12-30T00:57:34.468Z,35.28
2018-12-30T01:00:03.229Z,33.00
2018-12-30T01:02:33.440Z,32.42
2018-12-30T01:05:01.777Z,30.52
2018-12-30T01:07:30.224Z,30.82
2018-12-30T01:09:58.957Z,31.40
2018-12-30T01:12:28.328Z,29.35
2018-12-30T01:14:56.659Z,30.12
2018-12-30T01:17:26.800Z,30.35
2018-12-30T01:19:55.124Z,28.80
2018-12-30T01:22:23.581Z,29.82
2018-12-30T01:24:52.006Z,29.27
2018-12-30T01:27:20.559Z,26.77
2018-12-30T01:29:48.994Z,28.85
2018-12-30T01:32:17.408Z,27.17
2018-12-30T01:34:45.734Z,29.00
2018-12-30T01:37:14.453Z,28.90
2018-12-30T01:39:43.503Z,29.48
2018-12-30T01:42:11.935Z,27.85
2018-12-30T01:44:42.075Z,27.77
2018-12-30T01:47:10.601Z,27.02
2018-12-30T01:49:38.948Z,25.12
2018-12-30T01:52:07.468Z,25.15
2018-12-30T01:54:35.895Z,27.95
2018-12-30T01:57:04.339Z,27.42
2018-12-30T01:59:32.670Z,25.05
2018-12-30T02:02:01.024Z,25.05
2018-12-30T02:04:31.244Z,26.40
2018-12-30T02:06:59.681Z,25.57
2018-12-30T02:09:28.110Z,26.40
2018-12-30T02:11:56.587Z,25.92
2018-12-30T02:14:24.908Z,26.33
2018-12-30T02:16:53.675Z,26.55
2018-12-30T02:19:22.094Z,25.17
2018-12-30T02:21:51.045Z,27.13
2018-12-30T02:24:19.570Z,26.80
2018-12-30T02:26:48.422Z,28.07
2018-12-30T02:29:17.055Z,27.42
2018-12-30T02:31:45.600Z,27.87
2018-12-30T02:34:13.924Z,26.30
2018-12-30T02:36:44.041Z,26.35
2018-12-30T02:39:12.478Z,26.33
2018-12-30T02:41:41.116Z,26.62
2018-12-30T02:44:10.257Z,26.95
2018-12-30T02:46:38.683Z,25.75
2018-12-30T02:49:07.037Z,26.23
2018-12-30T02:51:35.663Z,28.45
2018-12-30T02:54:04.461Z,24.70
2018-12-30T02:56:32.781Z,27.20
2018-12-30T02:59:01.224Z,25.88
2018-12-30T03:01:29.659Z,27.58
2018-12-30T03:03:58.055Z,24.40
2018-12-30T03:06:26.779Z,24.35
2018-12-30T03:08:55.230Z,24.25
2018-12-30T03:11:24.151Z,23.90
2018-12-30T03:13:53.423Z,26.40
2018-12-30T03:16:21.766Z,25.15
2018-12-30T03:18:50.405Z,28.35
2018-12-30T03:21:18.834Z,25.68
2018-12-30T03:23:47.353Z,26.93
2018-12-30T03:26:17.393Z,26.87
2018-12-30T03:28:46.539Z,24.90
2018-12-30T03:31:15.173Z,27.32
2018-12-30T03:33:43.693Z,23.67
2018-12-30T03:36:12.030Z,23.42
2018-12-30T03:38:40.461Z,26.82
2018-12-30T03:41:10.100Z,24.80
2018-12-30T03:43:38.541Z,25.97
2018-12-30T03:46:08.754Z,27.77
2018-12-30T03:48:37.075Z,29.90
2018-12-30T03:51:06.113Z,26.02
2018-12-30T03:53:34.606Z,25.77
2018-12-30T03:56:04.751Z,28.55
2018-12-30T03:58:33.271Z,27.13
2018-12-30T04:01:01.698Z,26.85
2018-12-30T04:03:30.198Z,30.52
2018-12-30T04:05:58.635Z,29.00
2018-12-30T04:08:26.974Z,28.80
2018-12-30T04:10:55.294Z,26.77
2018-12-30T04:13:23.823Z,28.98
2018-12-30T04:15:52.148Z,28.55
2018-12-30T04:18:22.293Z,24.63
2018-12-30T04:20:50.637Z,24.15
2018-12-30T04:23:19.078Z,27.25
2018-12-30T04:25:47.504Z,26.57
2018-12-30T04:28:15.856Z,26.45
2018-12-30T04:30:45.978Z,26.82
2018-12-30T04:33:14.439Z,26.05
2018-12-30T04:35:42.783Z,28.10
2018-12-30T04:38:11.419Z,27.17
2018-12-30T04:40:39.871Z,27.27
2018-12-30T04:43:08.359Z,27.60
2018-12-30T04:45:36.710Z,26.12
2018-12-30T04:48:05.123Z,26.97
2018-12-30T04:50:33.546Z,25.55
2018-12-30T04:53:01.942Z,25.90
2018-12-30T04:55:30.295Z,25.20
2018-12-30T04:58:00.322Z,27.27
2018-12-30T05:00:29.125Z,25.70
2018-12-30T05:02:57.599Z,26.35
2018-12-30T05:05:26.032Z,26.10
2018-12-30T05:07:54.485Z,28.75
2018-12-30T05:10:23.001Z,29.52
2018-12-30T05:12:51.494Z,30.37
2018-12-30T05:15:19.920Z,27.82
2018-12-30T05:17:48.265Z,29.55
2018-12-30T05:20:16.584Z,27.50
2018-12-30T05:22:45.031Z,29.52
2018-12-30T05:25:13.463Z,28.47
2018-12-30T05:27:41.915Z,27.17
2018-12-30T05:30:10.534Z,27.22
2018-12-30T05:32:39.221Z,28.10
2018-12-30T05:35:07.550Z,29.23
2018-12-30T05:37:37.680Z,28.65
2018-12-30T05:40:06.113Z,28.95
2018-12-30T05:42:34.562Z,31.42
2018-12-30T05:45:05.167Z,29.07
2018-12-30T05:47:33.497Z,25.85
2018-12-30T05:50:01.836Z,27.22
2018-12-30T05:52:30.382Z,26.25
2018-12-30T05:54:58.815Z,26.50
2018-12-30T05:57:27.142Z,24.63
2018-12-30T05:59:55.471Z,26.82
2018-12-30T06:02:23.827Z,26.95
2018-12-30T06:04:52.156Z,27.65
2018-12-30T06:07:21.696Z,26.23
2018-12-30T06:09:51.921Z,25.25
2018-12-30T06:12:20.495Z,25.55
2018-12-30T06:14:48.823Z,24.87
2018-12-30T06:17:17.258Z,24.90
2018-12-30T06:19:45.692Z,22.25
2018-12-30T06:22:14.269Z,24.25
2018-12-30T06:24:42.731Z,23.85
2018-12-30T06:27:11.166Z,24.37
2018-12-30T06:29:40.611Z,22.82
2018-12-30T06:32:09.063Z,24.70
2018-12-30T06:34:37.402Z,24.92
2018-12-30T06:37:05.826Z,26.73
2018-12-30T06:39:34.757Z,26.55
2018-12-30T06:42:03.206Z,27.70
2018-12-30T06:44:31.541Z,25.17
2018-12-30T06:46:59.885Z,26.33
2018-12-30T06:49:30.610Z,24.12
2018-12-30T06:52:00.039Z,25.10
2018-12-30T06:54:28.473Z,26.52
2018-12-30T06:56:57.603Z,24.32
2018-12-30T06:59:27.817Z,26.48
2018-12-30T07:01:56.303Z,26.23
2018-12-30T07:04:24.742Z,25.62
2018-12-30T07:06:53.292Z,26.97
2018-12-30T07:09:23.012Z,29.85
2018-12-30T07:11:51.463Z,26.52
2018-12-30T07:14:20.296Z,25.97
2018-12-30T07:16:49.450Z,25.55
2018-12-30T07:19:18.876Z,26.60
2018-12-30T07:21:48.616Z,27.10
2018-12-30T07:24:16.971Z,25.95
2018-12-30T07:26:46.304Z,24.80
2018-12-30T07:29:14.681Z,25.35
2018-12-30T07:31:43.032Z,26.27
2018-12-30T07:34:11.500Z,27.22
2018-12-30T07:36:40.364Z,28.62
2018-12-30T07:39:09.150Z,30.72
2018-12-30T07:41:38.648Z,26.73
2018-12-30T07:44:07.402Z,27.02
2018-12-30T07:46:36.489Z,28.87
2018-12-30T07:49:04.906Z,29.40
2018-12-30T07:51:35.566Z,28.90
2018-12-30T07:54:04.036Z,27.67
2018-12-30T07:56:32.395Z,29.27
2018-12-30T07:59:00.791Z,27.95
2018-12-30T08:01:29.247Z,29.07
2018-12-30T08:03:58.029Z,28.95
2018-12-30T08:06:26.489Z,27.37
2018-12-30T08:08:54.819Z,29.60
2018-12-30T08:11:23.526Z,28.98
2018-12-30T08:13:52.182Z,27.02
2018-12-30T08:16:20.915Z,27.02
2018-12-30T08:18:49.656Z,30.12
2018-12-30T08:21:18.011Z,28.73
2018-12-30T08:23:46.616Z,27.25
2018-12-30T08:26:15.262Z,26.23
2018-12-30T08:28:45.380Z,29.40
2018-12-30T08:31:13.770Z,28.75
2018-12-30T08:33:42.928Z,29.27
2018-12-30T08:36:11.270Z,30.32
2018-12-30T08:38:39.710Z,30.90
2018-12-30T08:41:08.149Z,30.97
2018-12-30T08:43:36.536Z,29.75
2018-12-30T08:46:05.079Z,32.63
2018-12-30T08:48:33.524Z,31.90
2018-12-30T08:51:01.994Z,33.00
2018-12-30T08:53:30.553Z,30.95
2018-12-30T08:55:58.998Z,31.00
2018-12-30T08:58:27.338Z,28.73
2018-12-30T09:00:57.770Z,31.12
2018-12-30T09:03:26.288Z,28.60
2018-12-30T09:05:55.033Z,31.12
2018-12-30T09:08:23.668Z,30.77
2018-12-30T09:10:52.150Z,34.00
2018-12-30T09:13:20.643Z,33.48
2018-12-30T09:15:48.978Z,34.65
2018-12-30T09:18:17.438Z,33.78
2018-12-30T09:20:45.881Z,32.05
2018-12-30T09:23:14.543Z,32.25
2018-12-30T09:25:43.154Z,26.62
2018-12-30T09:28:11.660Z,27.95
2018-12-30T09:30:40.151Z,27.35
2018-12-30T09:33:08.721Z,26.70
2018-12-30T09:35:37.275Z,23.50
2018-12-30T09:38:06.352Z,24.32
2018-12-30T09:40:36.535Z,25.77
2018-12-30T09:43:04.986Z,26.85
2018-12-30T09:45:33.834Z,22.30
2018-12-30T09:48:02.222Z,21.33
2018-12-30T09:50:30.665Z,28.95
2018-12-30T09:52:59.164Z,33.18
2018-12-30T09:55:28.001Z,31.23
2018-12-30T09:57:56.496Z,31.30
2018-12-30T10:00:32.259Z,32.50
2018-12-30T10:03:01.334Z,33.23
2018-12-30T10:05:29.774Z,31.00
2018-12-30T10:07:58.616Z,34.13
2018-12-30T10:10:27.123Z,34.85
2018-12-30T10:12:55.685Z,32.98
2018-12-30T10:15:24.301Z,33.70
2018-12-30T10:17:52.743Z,31.52
2018-12-30T10:20:21.633Z,34.05
2018-12-30T10:22:50.073Z,32.93
2018-12-30T10:25:18.432Z,32.00
2018-12-30T10:27:47.411Z,36.50
2018-12-30T10:30:17.998Z,37.10
2018-12-30T10:32:46.464Z,35.00
2018-12-30T10:35:14.815Z,35.88
2018-12-30T10:37:44.583Z,34.35
2018-12-30T10:40:13.277Z,36.15
2018-12-30T10:42:41.749Z,38.20
2018-12-30T10:45:10.091Z,35.45
2018-12-30T10:47:38.436Z,39.60
2018-12-30T10:50:06.839Z,36.33
2018-12-30T10:52:35.324Z,33.55
2018-12-30T10:55:03.875Z,38.23
2018-12-30T10:57:32.225Z,33.38
2018-12-30T11:00:00.583Z,34.05
2018-12-30T11:02:29.165Z,31.17
2018-12-30T11:04:58.626Z,33.35
2018-12-30T11:07:27.572Z,35.60
2018-12-30T11:09:55.931Z,33.28
2018-12-30T11:12:26.181Z,33.63
2018-12-30T11:14:54.652Z,32.95
2018-12-30T11:17:22.992Z,33.53
2018-12-30T11:19:51.342Z,31.10
2018-12-30T11:22:19.756Z,34.55
2018-12-30T11:24:49.939Z,34.20
2018-12-30T11:27:18.276Z,34.03
2018-12-30T11:29:46.632Z,35.43
2018-12-30T11:32:16.293Z,31.77
2018-12-30T11:34:44.737Z,32.10
2018-12-30T11:37:13.188Z,31.87
2018-12-30T11:39:42.720Z,33.80
2018-12-30T11:42:11.108Z,34.30
2018-12-30T11:44:39.460Z,33.87
2018-12-30T11:47:07.820Z,32.33
2018-12-30T11:49:36.359Z,28.10
2018-12-30T11:52:04.759Z,23.90
2018-12-30T11:54:33.223Z,24.63
2018-12-30T11:57:01.869Z,22.90
2018-12-30T11:59:30.424Z,24.97
2018-12-30T12:01:58.841Z,30.97
2018-12-30T12:04:27.499Z,32.50
2018-12-30T12:06:55.857Z,32.60
2018-12-30T12:09:24.321Z,34.33
2018-12-30T12:11:52.897Z,36.57
2018-12-30T12:14:21.259Z,33.03
2018-12-30T12:16:49.707Z,31.40
2018-12-30T12:19:18.401Z,35.27
2018-12-30T12:21:46.895Z,30.77
2018-12-30T12:24:15.353Z,32.43
2018-12-30T12:26:44.308Z,31.07
2018-12-30T12:29:12.675Z,32.73
2018-12-30T12:31:41.128Z,32.93
2018-12-30T12:34:09.647Z,33.60
2018-12-30T12:36:39.777Z,35.07
2018-12-30T12:39:08.229Z,33.00
2018-12-30T12:41:36.761Z,35.03
2018-12-30T12:44:05.211Z,34.60
2018-12-30T12:46:33.633Z,37.23
2018-12-30T12:49:02.882Z,36.00
2018-12-30T12:51:31.334Z,38.10
2018-12-30T12:53:59.721Z,42.37
2018-12-30T12:56:28.211Z,38.13
2018-12-30T12:58:56.575Z,38.17
2018-12-30T13:01:25.127Z,37.47
2018-12-30T13:03:53.643Z,38.37
2018-12-30T13:06:22.098Z,37.90
2018-12-30T13:08:50.557Z,36.87
2018-12-30T13:11:19.022Z,34.43
2018-12-30T13:13:48.496Z,34.80
2018-12-30T13:16:17.266Z,34.13
2018-12-30T13:18:45.620Z,37.17
2018-12-30T13:21:14.089Z,35.47
2018-12-30T13:23:42.517Z,33.13
2018-12-30T13:26:12.376Z,35.67
2018-12-30T13:28:40.941Z,36.73
2018-12-30T13:31:09.396Z,34.10
2018-12-30T13:33:37.785Z,37.43
2018-12-30T13:36:10.077Z,34.13
2018-12-30T13:38:38.642Z,32.60
2018-12-30T13:41:06.987Z,34.80
2018-12-30T13:43:35.500Z,32.50
2018-12-30T13:46:05.898Z,35.53
2018-12-30T13:48:34.542Z,32.83
2018-12-30T13:51:04.718Z,34.57
2018-12-30T13:53:33.195Z,32.60
2018-12-30T13:56:01.651Z,33.20
2018-12-30T13:58:30.165Z,32.90
2018-12-30T14:00:58.663Z,33.17
2018-12-30T14:03:28.185Z,30.67
2018-12-30T14:05:56.564Z,31.57
2018-12-30T14:08:25.026Z,30.93
2018-12-30T14:10:53.381Z,30.03
2018-12-30T14:13:21.801Z,30.10
2018-12-30T14:15:51.019Z,15.27
2018-12-30T14:18:19.623Z,13.03
2018-12-30T14:20:47.966Z,8.27
2018-12-30T14:23:16.802Z,5.43
2018-12-30T14:25:45.312Z,4.00
2018-12-30T14:28:13.770Z,1.40
2018-12-30T14:30:45.038Z,1.80
2018-12-30T14:33:13.516Z,2.60
2018-12-30T14:35:42.068Z,2.93
2018-12-30T14:38:10.520Z,2.00
2018-12-30T14:40:39.082Z,1.87
2018-12-30T14:43:07.530Z,2.50
2018-12-30T14:45:36.107Z,2.60
2018-12-30T14:48:04.592Z,2.10
2018-12-30T14:50:33.066Z,1.67
2018-12-30T14:53:01.704Z,0.90
2018-12-30T14:55:30.186Z,0.87
2018-12-30T14:57:58.897Z,1.10
2018-12-30T15:00:28.114Z,2.50
2018-12-30T15:02:56.509Z,1.50
2018-12-30T15:05:25.164Z,1.07
2018-12-30T15:07:53.521Z,1.10
2018-12-30T15:10:21.879Z,2.77
2018-12-30T15:12:50.288Z,0.77
2018-12-30T15:15:20.509Z,1.27
2018-12-30T15:17:48.909Z,0.70
2018-12-30T15:20:17.280Z,1.30
2018-12-30T15:22:47.372Z,1.07
2018-12-30T15:25:18.829Z,0.53
2018-12-30T15:27:47.643Z,6.40
2018-12-30T15:30:17.141Z,0.70
2018-12-30T15:32:45.591Z,0.53
2018-12-30T15:35:14.161Z,0.60
2018-12-30T15:37:42.723Z,0.60
2018-12-30T15:40:11.088Z,0.30
2018-12-30T15:42:40.627Z,1.23
2018-12-30T15:45:09.112Z,1.37
2018-12-30T15:47:39.086Z,0.80
2018-12-30T15:50:08.080Z,0.67
2018-12-30T15:52:36.483Z,1.73
2018-12-30T15:55:05.312Z,1.30
2018-12-30T15:57:33.942Z,1.60
2018-12-30T16:00:02.405Z,0.80
2018-12-30T16:02:32.669Z,0.60
2018-12-30T16:05:01.210Z,1.23
2018-12-30T16:07:29.669Z,1.10
2018-12-30T16:09:59.849Z,0.60
2018-12-30T16:12:28.209Z,0.60
2018-12-30T16:14:56.702Z,2.87
2018-12-30T16:17:25.172Z,1.47
2018-12-30T16:19:53.752Z,2.00
2018-12-30T16:22:23.508Z,2.43
2018-12-30T16:24:51.956Z,1.93
2018-12-30T16:27:20.354Z,0.90
2018-12-30T16:29:48.822Z,1.20
2018-12-30T16:32:17.735Z,0.50
2018-12-30T16:34:46.286Z,1.50
2018-12-30T16:37:14.747Z,1.50
2018-12-30T16:39:43.488Z,1.00
2018-12-30T16:42:12.243Z,1.73
2018-12-30T16:44:42.509Z,2.20
2018-12-30T16:47:10.886Z,2.60
2018-12-30T16:49:39.354Z,1.10
2018-12-30T16:52:07.804Z,0.70
2018-12-30T16:54:36.176Z,1.50
2018-12-30T16:57:04.653Z,0.70
2018-12-30T16:59:33.361Z,2.80
2018-12-30T17:02:01.827Z,1.93
2018-12-30T17:04:30.199Z,7.50
2018-12-30T17:06:58.540Z,3.80
2018-12-30T17:09:27.043Z,2.67
2018-12-30T17:11:55.430Z,1.23
2018-12-30T17:14:23.800Z,1.23
2018-12-30T17:16:52.234Z,1.20
2018-12-30T17:19:20.708Z,1.40
2018-12-30T17:21:49.157Z,2.33
2018-12-30T17:24:17.528Z,3.20
2018-12-30T17:26:46.264Z,1.63
2018-12-30T17:29:15.825Z,0.97
2018-12-30T17:31:44.509Z,1.60
2018-12-30T17:34:12.952Z,1.43
2018-12-30T17:36:44.363Z,1.13
2018-12-30T17:39:12.820Z,0.80
2018-12-30T17:41:41.160Z,0.47
2018-12-30T17:44:09.645Z,0.80
2018-12-30T17:46:38.204Z,0.90
2018-12-30T17:49:10.299Z,1.80
2018-12-30T17:51:39.013Z,2.07
2018-12-30T17:54:15.101Z,3.10
2018-12-30T17:56:39.258Z,4.37
2018-12-30T17:59:09.456Z,3.20
2018-12-30T18:01:38.568Z,3.73
2018-12-30T18:04:07.219Z,2.80
2018-12-30T18:06:35.700Z,1.90
2018-12-30T18:09:05.500Z,2.27
2018-12-30T18:11:34.671Z,1.30
2018-12-30T18:14:03.173Z,3.70
2018-12-30T18:16:31.575Z,2.63
2018-12-30T18:19:00.729Z,2.90
2018-12-30T18:21:29.225Z,2.80
2018-12-30T18:23:57.706Z,1.60
2018-12-30T18:26:26.171Z,2.80
2018-12-30T18:28:54.720Z,2.60
2018-12-30T18:31:23.191Z,2.20
2018-12-30T18:33:51.624Z,1.70
2018-12-30T18:36:20.071Z,3.30
2018-12-30T18:38:48.415Z,3.90
2018-12-30T18:41:16.867Z,1.80
2018-12-30T18:43:45.352Z,2.50
2018-12-30T18:46:13.966Z,3.20
2018-12-30T18:48:42.454Z,3.20
2018-12-30T18:51:10.925Z,4.63
2018-12-30T18:53:39.608Z,5.53
2018-12-30T18:56:08.530Z,3.07
2018-12-30T18:58:37.045Z,2.53
2018-12-30T19:01:05.696Z,1.90
2018-12-30T19:03:34.269Z,3.27
2018-12-30T19:06:04.008Z,1.47
2018-12-30T19:08:32.515Z,1.53
2018-12-30T19:11:00.861Z,1.40
2018-12-30T19:13:29.708Z,2.40
2018-12-30T19:16:00.285Z,2.30
2018-12-30T19:18:28.918Z,1.27
2018-12-30T19:20:59.481Z,3.17
2018-12-30T19:23:28.017Z,1.47
2018-12-30T19:26:01.049Z,1.93
2018-12-30T19:28:27.122Z,1.00
2018-12-30T19:30:55.593Z,1.65
2018-12-30T19:33:25.828Z,3.10
2018-12-30T19:35:54.177Z,1.20
2018-12-30T19:38:22.837Z,1.53
2018-12-30T19:40:51.216Z,2.05
2018-12-30T19:43:19.658Z,1.70
2018-12-30T19:45:50.567Z,1.80
2018-12-30T19:48:18.929Z,1.83
2018-12-30T19:50:47.683Z,4.27
2018-12-30T19:53:16.241Z,7.17
2018-12-30T19:55:46.408Z,6.17
2018-12-30T19:58:16.015Z,7.07
2018-12-30T20:00:44.699Z,5.40
2018-12-30T20:03:13.199Z,3.67
2018-12-30T20:05:41.874Z,2.93
2018-12-30T20:08:10.435Z,2.57
2018-12-30T20:10:38.904Z,2.00
2018-12-30T20:13:09.116Z,1.85
2018-12-30T20:15:37.763Z,1.80
2018-12-30T20:18:06.404Z,1.80
2018-12-30T20:20:34.878Z,1.97
2018-12-30T20:23:03.909Z,1.70
2018-12-30T20:25:32.565Z,1.13
2018-12-30T20:28:04.145Z,1.93
2018-12-30T20:30:32.945Z,1.13
2018-12-30T20:33:02.113Z,1.07
2018-12-30T20:35:30.622Z,1.00
2018-12-30T20:37:59.036Z,1.00
2018-12-30T20:40:27.498Z,1.60
2018-12-30T20:42:56.017Z,0.97
2018-12-30T20:45:25.864Z,1.20
2018-12-30T20:47:54.442Z,0.80
2018-12-30T20:50:22.891Z,1.17
2018-12-30T20:52:51.311Z,0.90
2018-12-30T20:55:20.136Z,1.80
2018-12-30T20:57:50.273Z,1.07
2018-12-30T21:00:23.053Z,1.50
2018-12-30T21:02:53.802Z,1.83
2018-12-30T21:05:22.307Z,1.47
2018-12-30T21:07:50.843Z,0.83
2018-12-30T21:10:19.518Z,1.20
2018-12-30T21:12:47.976Z,1.40
2018-12-30T21:15:16.337Z,1.03
2018-12-30T21:17:44.688Z,0.90
2018-12-30T21:20:13.253Z,1.07
2018-12-30T21:22:42.326Z,1.17
2018-12-30T21:25:10.779Z,0.67
2018-12-30T21:27:39.228Z,0.90
2018-12-30T21:30:08.674Z,0.60
2018-12-30T21:32:37.582Z,1.20
2018-12-30T21:35:06.743Z,0.70
2018-12-30T21:37:35.806Z,0.90
2018-12-30T21:40:04.848Z,0.70
2018-12-30T21:42:33.276Z,1.23
2018-12-30T21:45:01.630Z,1.13
2018-12-30T21:47:30.003Z,0.60
2018-12-30T21:49:58.450Z,1.87
2018-12-30T21:52:27.022Z,1.40
2018-12-30T21:54:57.168Z,1.20
2018-12-30T21:57:26.439Z,1.77
2018-12-30T21:59:54.883Z,1.17
2018-12-30T22:02:23.366Z,1.40
2018-12-30T22:04:51.826Z,1.30
2018-12-30T22:07:21.102Z,1.40
2018-12-30T22:09:49.460Z,1.80
2018-12-30T22:12:18.100Z,1.50
2018-12-30T22:14:46.774Z,1.70
2018-12-30T22:17:15.423Z,2.80
2018-12-30T22:19:43.756Z,2.10
2018-12-30T22:22:12.137Z,1.83
2018-12-30T22:24:40.742Z,2.17
2018-12-30T22:27:09.195Z,1.50
2018-12-30T22:29:38.329Z,1.83
2018-12-30T22:32:06.776Z,1.13
2018-12-30T22:34:39.017Z,1.87
2018-12-30T22:37:09.967Z,1.27
2018-12-30T22:39:39.106Z,1.00
2018-12-30T22:42:07.639Z,0.70
2018-12-30T22:44:36.090Z,0.50
2018-12-30T22:47:04.435Z,0.60
2018-12-30T22:49:32.897Z,0.55
2018-12-30T22:52:01.291Z,0.50
2018-12-30T22:54:31.414Z,0.57
2018-12-30T22:56:59.868Z,0.60
2018-12-30T22:59:28.532Z,0.93
2018-12-30T23:01:57.017Z,0.47
2018-12-30T23:04:25.963Z,0.80
2018-12-30T23:06:54.420Z,0.33
2018-12-30T23:09:22.764Z,0.63
2018-12-30T23:11:51.111Z,0.87
2018-12-30T23:14:19.562Z,0.70
2018-12-30T23:16:48.006Z,0.50
2018-12-30T23:19:16.459Z,0.40
2018-12-30T23:21:44.806Z,0.40
2018-12-30T23:24:13.176Z,0.67
2018-12-30T23:26:41.613Z,0.40
2018-12-30T23:29:09.965Z,0.47
2018-12-30T23:31:38.532Z,0.60
2018-12-30T23:34:06.899Z,0.30
2018-12-30T23:36:35.364Z,0.60
2018-12-30T23:39:06.986Z,0.40
2018-12-30T23:41:35.824Z,0.30
2018-12-30T23:44:04.382Z,0.40
2018-12-30T23:46:34.520Z,0.50
2018-12-30T23:49:02.983Z,0.60
2018-12-30T23:51:31.429Z,0.90
2018-12-30T23:53:59.831Z,0.50
2018-12-30T23:56:29.474Z,0.70
2018-12-30T23:58:57.823Z,0.80
